sensor_id;sensor_type;location;lat;lon;timestamp;temperature;humidity
68943;DHT22;60852;52.190;4.422;2023-03-04T00:01:39;7.62;68.68
68943;DHT22;60852;52.190;4.422;2023-03-04T00:04:04;7.70;68.49
68943;DHT22;60852;52.190;4.422;2023-03-04T00:06:30;7.62;67.98
68943;DHT22;60852;52.190;4.422;2023-03-04T00:08:55;7.64;68.22
68943;DHT22;60852;52.190;4.422;2023-03-04T00:11:21;7.74;67.82
68943;DHT22;60852;52.190;4.422;2023-03-04T00:13:46;7.80;67.78
68943;DHT22;60852;52.190;4.422;2023-03-04T00:16:12;7.75;67.74
68943;DHT22;60852;52.190;4.422;2023-03-04T00:18:37;7.74;67.88
68943;DHT22;60852;52.190;4.422;2023-03-04T00:21:03;7.60;68.29
68943;DHT22;60852;52.190;4.422;2023-03-04T00:23:28;7.64;68.16
68943;DHT22;60852;52.190;4.422;2023-03-04T00:25:54;7.63;68.04
68943;DHT22;60852;52.190;4.422;2023-03-04T00:28:19;7.60;68.08
68943;DHT22;60852;52.190;4.422;2023-03-04T00:30:45;7.59;67.91
68943;DHT22;60852;52.190;4.422;2023-03-04T00:33:10;7.49;68.06
68943;DHT22;60852;52.190;4.422;2023-03-04T00:35:36;7.57;67.89
68943;DHT22;60852;52.190;4.422;2023-03-04T00:38:01;7.63;67.66
68943;DHT22;60852;52.190;4.422;2023-03-04T00:40:26;7.59;67.92
68943;DHT22;60852;52.190;4.422;2023-03-04T00:42:52;7.57;68.35
68943;DHT22;60852;52.190;4.422;2023-03-04T00:45:17;7.52;68.39
68943;DHT22;60852;52.190;4.422;2023-03-04T00:47:43;7.60;68.32
68943;DHT22;60852;52.190;4.422;2023-03-04T00:50:09;7.62;68.44
68943;DHT22;60852;52.190;4.422;2023-03-04T00:52:35;7.54;68.63
68943;DHT22;60852;52.190;4.422;2023-03-04T00:55:00;7.60;68.58
68943;DHT22;60852;52.190;4.422;2023-03-04T00:57:26;7.62;68.81
68943;DHT22;60852;52.190;4.422;2023-03-04T00:59:51;7.66;68.91
68943;DHT22;60852;52.190;4.422;2023-03-04T01:02:17;7.52;68.82
68943;DHT22;60852;52.190;4.422;2023-03-04T01:04:43;7.50;69.11
68943;DHT22;60852;52.190;4.422;2023-03-04T01:07:08;7.56;68.82
68943;DHT22;60852;52.190;4.422;2023-03-04T01:09:34;7.57;69.02
68943;DHT22;60852;52.190;4.422;2023-03-04T01:11:59;7.56;68.97
68943;DHT22;60852;52.190;4.422;2023-03-04T01:14:25;7.49;68.37
68943;DHT22;60852;52.190;4.422;2023-03-04T01:16:51;7.53;68.13
68943;DHT22;60852;52.190;4.422;2023-03-04T01:19:17;7.40;68.20
68943;DHT22;60852;52.190;4.422;2023-03-04T01:21:43;7.47;68.13
68943;DHT22;60852;52.190;4.422;2023-03-04T01:24:09;7.52;68.07
68943;DHT22;60852;52.190;4.422;2023-03-04T01:26:34;7.53;68.21
68943;DHT22;60852;52.190;4.422;2023-03-04T01:29:00;7.57;68.19
68943;DHT22;60852;52.190;4.422;2023-03-04T01:31:25;7.62;68.01
68943;DHT22;60852;52.190;4.422;2023-03-04T01:33:51;7.54;67.42
68943;DHT22;60852;52.190;4.422;2023-03-04T01:36:16;7.57;67.18
68943;DHT22;60852;52.190;4.422;2023-03-04T01:38:43;7.62;67.14
68943;DHT22;60852;52.190;4.422;2023-03-04T01:41:10;7.67;67.34
68943;DHT22;60852;52.190;4.422;2023-03-04T01:43:36;7.71;67.32
68943;DHT22;60852;52.190;4.422;2023-03-04T01:46:03;7.73;67.82
68943;DHT22;60852;52.190;4.422;2023-03-04T01:48:37;7.71;68.25
68943;DHT22;60852;52.190;4.422;2023-03-04T01:51:04;7.66;68.75
68943;DHT22;60852;52.190;4.422;2023-03-04T01:53:31;7.64;68.81
68943;DHT22;60852;52.190;4.422;2023-03-04T01:56:01;7.57;69.07
68943;DHT22;60852;52.190;4.422;2023-03-04T01:58:31;7.57;69.34
68943;DHT22;60852;52.190;4.422;2023-03-04T02:00:57;7.66;69.19
68943;DHT22;60852;52.190;4.422;2023-03-04T02:03:23;7.64;68.84
68943;DHT22;60852;52.190;4.422;2023-03-04T02:05:51;7.59;68.77
68943;DHT22;60852;52.190;4.422;2023-03-04T02:08:20;7.54;68.68
68943;DHT22;60852;52.190;4.422;2023-03-04T02:10:47;7.53;68.54
68943;DHT22;60852;52.190;4.422;2023-03-04T02:13:14;7.52;68.68
68943;DHT22;60852;52.190;4.422;2023-03-04T02:15:42;7.56;68.82
68943;DHT22;60852;52.190;4.422;2023-03-04T02:18:20;7.47;68.50
68943;DHT22;60852;52.190;4.422;2023-03-04T02:21:14;7.40;68.94
68943;DHT22;60852;52.190;4.422;2023-03-04T02:26:32;7.22;69.32
68943;DHT22;60852;52.190;4.422;2023-03-04T02:29:01;7.36;69.13
68943;DHT22;60852;52.190;4.422;2023-03-04T02:31:34;7.35;68.97
68943;DHT22;60852;52.190;4.422;2023-03-04T02:36:57;7.33;68.63
68943;DHT22;60852;52.190;4.422;2023-03-04T02:39:31;7.27;68.40
68943;DHT22;60852;52.190;4.422;2023-03-04T02:41:57;7.18;68.37
68943;DHT22;60852;52.190;4.422;2023-03-04T02:44:30;7.22;68.45
68943;DHT22;60852;52.190;4.422;2023-03-04T02:46:57;7.33;68.14
68943;DHT22;60852;52.190;4.422;2023-03-04T02:49:26;7.37;68.03
68943;DHT22;60852;52.190;4.422;2023-03-04T02:52:08;7.30;68.16
68943;DHT22;60852;52.190;4.422;2023-03-04T02:54:33;7.19;68.33
68943;DHT22;60852;52.190;4.422;2023-03-04T02:57:02;7.26;68.51
68943;DHT22;60852;52.190;4.422;2023-03-04T02:59:28;7.25;68.73
68943;DHT22;60852;52.190;4.422;2023-03-04T03:01:54;7.26;68.70
68943;DHT22;60852;52.190;4.422;2023-03-04T03:04:20;7.32;68.84
68943;DHT22;60852;52.190;4.422;2023-03-04T03:06:46;7.29;68.95
68943;DHT22;60852;52.190;4.422;2023-03-04T03:09:12;7.33;68.86
68943;DHT22;60852;52.190;4.422;2023-03-04T03:11:37;7.36;68.81
68943;DHT22;60852;52.190;4.422;2023-03-04T03:14:03;7.39;68.85
68943;DHT22;60852;52.190;4.422;2023-03-04T03:16:29;7.39;69.26
68943;DHT22;60852;52.190;4.422;2023-03-04T03:18:55;7.42;69.42
68943;DHT22;60852;52.190;4.422;2023-03-04T03:21:20;7.36;69.92
68943;DHT22;60852;52.190;4.422;2023-03-04T03:23:46;7.32;69.98
68943;DHT22;60852;52.190;4.422;2023-03-04T03:26:11;7.27;69.61
68943;DHT22;60852;52.190;4.422;2023-03-04T03:28:37;7.16;69.19
68943;DHT22;60852;52.190;4.422;2023-03-04T03:31:03;7.20;68.63
68943;DHT22;60852;52.190;4.422;2023-03-04T03:33:29;7.16;68.35
68943;DHT22;60852;52.190;4.422;2023-03-04T03:35:54;7.16;68.69
68943;DHT22;60852;52.190;4.422;2023-03-04T03:38:20;7.25;68.77
68943;DHT22;60852;52.190;4.422;2023-03-04T03:40:45;7.29;69.05
68943;DHT22;60852;52.190;4.422;2023-03-04T03:43:11;7.30;69.21
68943;DHT22;60852;52.190;4.422;2023-03-04T03:45:36;7.30;69.66
68943;DHT22;60852;52.190;4.422;2023-03-04T03:48:02;7.33;69.74
68943;DHT22;60852;52.190;4.422;2023-03-04T03:50:28;7.39;70.35
68943;DHT22;60852;52.190;4.422;2023-03-04T03:52:54;7.30;71.06
68943;DHT22;60852;52.190;4.422;2023-03-04T03:55:20;7.25;70.73
68943;DHT22;60852;52.190;4.422;2023-03-04T03:57:45;7.16;70.53
68943;DHT22;60852;52.190;4.422;2023-03-04T04:00:12;7.05;69.75
68943;DHT22;60852;52.190;4.422;2023-03-04T04:02:38;7.04;69.32
68943;DHT22;60852;52.190;4.422;2023-03-04T04:05:04;7.05;69.02
68943;DHT22;60852;52.190;4.422;2023-03-04T04:07:30;7.08;68.51
68943;DHT22;60852;52.190;4.422;2023-03-04T04:09:55;7.09;67.95
68943;DHT22;60852;52.190;4.422;2023-03-04T04:12:20;7.12;67.73
68943;DHT22;60852;52.190;4.422;2023-03-04T04:14:46;7.14;67.78
68943;DHT22;60852;52.190;4.422;2023-03-04T04:17:11;7.23;67.42
68943;DHT22;60852;52.190;4.422;2023-03-04T04:19:39;7.22;67.95
68943;DHT22;60852;52.190;4.422;2023-03-04T04:22:06;7.25;68.41
68943;DHT22;60852;52.190;4.422;2023-03-04T04:24:33;7.36;69.00
68943;DHT22;60852;52.190;4.422;2023-03-04T04:26:58;7.27;69.86
68943;DHT22;60852;52.190;4.422;2023-03-04T04:29:24;7.27;70.20
68943;DHT22;60852;52.190;4.422;2023-03-04T04:31:50;7.30;70.42
68943;DHT22;60852;52.190;4.422;2023-03-04T04:34:16;7.22;70.41
68943;DHT22;60852;52.190;4.422;2023-03-04T04:36:41;7.29;70.45
68943;DHT22;60852;52.190;4.422;2023-03-04T04:39:07;7.23;70.71
68943;DHT22;60852;52.190;4.422;2023-03-04T04:41:38;7.16;71.71
68943;DHT22;60852;52.190;4.422;2023-03-04T04:44:04;7.19;72.11
68943;DHT22;60852;52.190;4.422;2023-03-04T04:46:29;7.23;72.28
68943;DHT22;60852;52.190;4.422;2023-03-04T04:48:55;7.30;72.38
68943;DHT22;60852;52.190;4.422;2023-03-04T04:51:21;7.25;72.81
68943;DHT22;60852;52.190;4.422;2023-03-04T04:53:47;7.26;72.14
68943;DHT22;60852;52.190;4.422;2023-03-04T04:56:20;7.32;72.07
68943;DHT22;60852;52.190;4.422;2023-03-04T04:58:47;7.32;71.49
68943;DHT22;60852;52.190;4.422;2023-03-04T05:01:13;7.33;71.10
68943;DHT22;60852;52.190;4.422;2023-03-04T05:03:39;7.30;69.94
68943;DHT22;60852;52.190;4.422;2023-03-04T05:06:07;7.26;69.71
68943;DHT22;60852;52.190;4.422;2023-03-04T05:08:33;7.29;69.75
68943;DHT22;60852;52.190;4.422;2023-03-04T05:11:00;7.32;69.74
68943;DHT22;60852;52.190;4.422;2023-03-04T05:13:26;7.26;70.16
68943;DHT22;60852;52.190;4.422;2023-03-04T05:15:55;7.36;70.13
68943;DHT22;60852;52.190;4.422;2023-03-04T05:18:22;7.35;70.04
68943;DHT22;60852;52.190;4.422;2023-03-04T05:20:53;7.37;70.15
68943;DHT22;60852;52.190;4.422;2023-03-04T05:23:19;7.40;70.08
68943;DHT22;60852;52.190;4.422;2023-03-04T05:25:45;7.43;70.04
68943;DHT22;60852;52.190;4.422;2023-03-04T05:28:12;7.40;70.04
68943;DHT22;60852;52.190;4.422;2023-03-04T05:30:38;7.46;70.16
68943;DHT22;60852;52.190;4.422;2023-03-04T05:33:05;7.46;70.80
68943;DHT22;60852;52.190;4.422;2023-03-04T05:35:37;7.52;71.22
68943;DHT22;60852;52.190;4.422;2023-03-04T05:38:05;7.57;71.74
68943;DHT22;60852;52.190;4.422;2023-03-04T05:40:31;7.44;72.76
68943;DHT22;60852;52.190;4.422;2023-03-04T05:42:57;7.47;73.22
68943;DHT22;60852;52.190;4.422;2023-03-04T05:45:24;7.44;73.45
68943;DHT22;60852;52.190;4.422;2023-03-04T05:47:49;7.50;73.44
68943;DHT22;60852;52.190;4.422;2023-03-04T05:50:15;7.43;73.52
68943;DHT22;60852;52.190;4.422;2023-03-04T05:52:40;7.44;73.69
68943;DHT22;60852;52.190;4.422;2023-03-04T05:55:06;7.42;73.98
68943;DHT22;60852;52.190;4.422;2023-03-04T05:57:31;7.30;74.64
68943;DHT22;60852;52.190;4.422;2023-03-04T05:59:57;7.25;75.16
68943;DHT22;60852;52.190;4.422;2023-03-04T06:02:22;7.26;75.47
68943;DHT22;60852;52.190;4.422;2023-03-04T06:04:48;7.22;73.25
68943;DHT22;60852;52.190;4.422;2023-03-04T06:07:13;7.20;71.48
68943;DHT22;60852;52.190;4.422;2023-03-04T06:09:39;7.22;70.51
68943;DHT22;60852;52.190;4.422;2023-03-04T06:12:04;7.30;69.63
68943;DHT22;60852;52.190;4.422;2023-03-04T06:14:30;7.35;69.37
68943;DHT22;60852;52.190;4.422;2023-03-04T06:16:55;7.43;69.12
68943;DHT22;60852;52.190;4.422;2023-03-04T06:19:21;7.52;69.10
68943;DHT22;60852;52.190;4.422;2023-03-04T06:21:46;7.57;69.19
68943;DHT22;60852;52.190;4.422;2023-03-04T06:24:12;7.64;69.30
68943;DHT22;60852;52.190;4.422;2023-03-04T06:26:37;7.60;69.49
68943;DHT22;60852;52.190;4.422;2023-03-04T06:29:04;7.60;69.76
68943;DHT22;60852;52.190;4.422;2023-03-04T06:31:30;7.57;70.10
68943;DHT22;60852;52.190;4.422;2023-03-04T06:33:55;7.60;70.05
68943;DHT22;60852;52.190;4.422;2023-03-04T06:36:20;7.67;69.92
68943;DHT22;60852;52.190;4.422;2023-03-04T06:38:46;7.57;70.02
68943;DHT22;60852;52.190;4.422;2023-03-04T06:41:12;7.60;70.29
68943;DHT22;60852;52.190;4.422;2023-03-04T06:43:39;7.66;70.60
68943;DHT22;60852;52.190;4.422;2023-03-04T06:46:06;7.63;72.40
68943;DHT22;60852;52.190;4.422;2023-03-04T06:48:31;7.57;74.11
68943;DHT22;60852;52.190;4.422;2023-03-04T06:50:57;7.49;75.06
68943;DHT22;60852;52.190;4.422;2023-03-04T06:53:22;7.42;75.18
68943;DHT22;60852;52.190;4.422;2023-03-04T06:55:48;7.39;75.09
68943;DHT22;60852;52.190;4.422;2023-03-04T06:58:14;7.42;75.37
68943;DHT22;60852;52.190;4.422;2023-03-04T07:00:42;7.44;75.55
68943;DHT22;60852;52.190;4.422;2023-03-04T07:03:09;7.53;75.62
68943;DHT22;60852;52.190;4.422;2023-03-04T07:05:35;7.57;75.56
68943;DHT22;60852;52.190;4.422;2023-03-04T07:08:00;7.64;75.67
68943;DHT22;60852;52.190;4.422;2023-03-04T07:10:26;7.70;75.67
68943;DHT22;60852;52.190;4.422;2023-03-04T07:12:51;7.78;75.74
68943;DHT22;60852;52.190;4.422;2023-03-04T07:15:17;7.81;75.62
68943;DHT22;60852;52.190;4.422;2023-03-04T07:17:42;7.90;75.66
68943;DHT22;60852;52.190;4.422;2023-03-04T07:20:08;7.90;75.52
68943;DHT22;60852;52.190;4.422;2023-03-04T07:22:34;7.70;76.44
68943;DHT22;60852;52.190;4.422;2023-03-04T07:24:59;7.60;76.98
68943;DHT22;60852;52.190;4.422;2023-03-04T07:27:25;7.47;77.61
68943;DHT22;60852;52.190;4.422;2023-03-04T07:29:50;7.50;77.34
68943;DHT22;60852;52.190;4.422;2023-03-04T07:32:15;7.53;77.09
68943;DHT22;60852;52.190;4.422;2023-03-04T07:34:41;7.62;76.94
68943;DHT22;60852;52.190;4.422;2023-03-04T07:37:06;7.69;76.60
68943;DHT22;60852;52.190;4.422;2023-03-04T07:39:32;7.74;76.58
68943;DHT22;60852;52.190;4.422;2023-03-04T07:41:57;7.78;76.72
68943;DHT22;60852;52.190;4.422;2023-03-04T07:44:23;7.84;77.18
68943;DHT22;60852;52.190;4.422;2023-03-04T07:46:48;7.97;77.01
68943;DHT22;60852;52.190;4.422;2023-03-04T07:49:14;7.94;76.69
68943;DHT22;60852;52.190;4.422;2023-03-04T07:51:39;7.95;77.13
68943;DHT22;60852;52.190;4.422;2023-03-04T07:54:05;8.14;76.67
68943;DHT22;60852;52.190;4.422;2023-03-04T07:56:32;8.14;76.35
68943;DHT22;60852;52.190;4.422;2023-03-04T07:58:59;8.16;76.20
68943;DHT22;60852;52.190;4.422;2023-03-04T08:01:36;8.24;75.86
68943;DHT22;60852;52.190;4.422;2023-03-04T08:04:04;8.26;75.42
68943;DHT22;60852;52.190;4.422;2023-03-04T08:06:30;8.26;75.35
68943;DHT22;60852;52.190;4.422;2023-03-04T08:08:59;8.22;76.31
68943;DHT22;60852;52.190;4.422;2023-03-04T08:11:26;8.28;77.61
68943;DHT22;60852;52.190;4.422;2023-03-04T08:13:52;8.15;79.11
68943;DHT22;60852;52.190;4.422;2023-03-04T08:16:21;8.01;80.62
68943;DHT22;60852;52.190;4.422;2023-03-04T08:18:50;7.95;81.25
68943;DHT22;60852;52.190;4.422;2023-03-04T08:21:18;7.94;81.60
68943;DHT22;60852;52.190;4.422;2023-03-04T08:23:45;8.02;81.74
68943;DHT22;60852;52.190;4.422;2023-03-04T08:26:19;7.75;81.53
68943;DHT22;60852;52.190;4.422;2023-03-04T08:28:45;7.77;81.79
68943;DHT22;60852;52.190;4.422;2023-03-04T08:31:12;7.69;82.16
68943;DHT22;60852;52.190;4.422;2023-03-04T08:33:38;7.83;82.38
68943;DHT22;60852;52.190;4.422;2023-03-04T08:36:04;7.98;82.07
68943;DHT22;60852;52.190;4.422;2023-03-04T08:38:30;8.08;81.45
68943;DHT22;60852;52.190;4.422;2023-03-04T08:40:56;8.25;81.61
68943;DHT22;60852;52.190;4.422;2023-03-04T08:43:24;8.32;81.43
68943;DHT22;60852;52.190;4.422;2023-03-04T08:45:51;8.48;81.16
68943;DHT22;60852;52.190;4.422;2023-03-04T08:48:17;8.50;80.88
68943;DHT22;60852;52.190;4.422;2023-03-04T08:50:44;8.46;80.49
68943;DHT22;60852;52.190;4.422;2023-03-04T08:53:10;8.46;80.54
68943;DHT22;60852;52.190;4.422;2023-03-04T08:55:40;8.62;81.21
68943;DHT22;60852;52.190;4.422;2023-03-04T08:58:07;8.52;80.33
68943;DHT22;60852;52.190;4.422;2023-03-04T09:00:35;8.48;80.93
68943;DHT22;60852;52.190;4.422;2023-03-04T09:03:01;8.62;80.63
68943;DHT22;60852;52.190;4.422;2023-03-04T09:05:27;8.66;80.43
68943;DHT22;60852;52.190;4.422;2023-03-04T09:07:53;8.70;79.42
68943;DHT22;60852;52.190;4.422;2023-03-04T09:10:18;8.81;79.52
68943;DHT22;60852;52.190;4.422;2023-03-04T09:12:44;8.90;78.99
68943;DHT22;60852;52.190;4.422;2023-03-04T09:15:11;8.85;78.12
68943;DHT22;60852;52.190;4.422;2023-03-04T09:17:38;8.85;77.80
68943;DHT22;60852;52.190;4.422;2023-03-04T09:20:04;8.60;78.05
68943;DHT22;60852;52.190;4.422;2023-03-04T09:22:31;8.70;78.92
68943;DHT22;60852;52.190;4.422;2023-03-04T09:24:56;8.73;78.87
68943;DHT22;60852;52.190;4.422;2023-03-04T09:27:22;8.88;79.04
68943;DHT22;60852;52.190;4.422;2023-03-04T09:29:47;8.87;78.85
68943;DHT22;60852;52.190;4.422;2023-03-04T09:32:13;8.83;79.09
68943;DHT22;60852;52.190;4.422;2023-03-04T09:34:39;8.90;79.25
68943;DHT22;60852;52.190;4.422;2023-03-04T09:37:05;8.83;79.10
68943;DHT22;60852;52.190;4.422;2023-03-04T09:39:30;8.76;78.59
68943;DHT22;60852;52.190;4.422;2023-03-04T09:41:57;8.53;80.11
68943;DHT22;60852;52.190;4.422;2023-03-04T09:44:32;8.53;81.29
68943;DHT22;60852;52.190;4.422;2023-03-04T09:47:03;8.46;81.46
68943;DHT22;60852;52.190;4.422;2023-03-04T09:49:29;8.45;82.14
68943;DHT22;60852;52.190;4.422;2023-03-04T09:52:17;8.53;82.51
68943;DHT22;60852;52.190;4.422;2023-03-04T09:57:24;8.50;82.40
68943;DHT22;60852;52.190;4.422;2023-03-04T10:02:38;8.29;82.50
68943;DHT22;60852;52.190;4.422;2023-03-04T10:05:10;8.24;82.35
68943;DHT22;60852;52.190;4.422;2023-03-04T10:07:41;8.32;82.57
68943;DHT22;60852;52.190;4.422;2023-03-04T10:10:32;8.45;82.67
68943;DHT22;60852;52.190;4.422;2023-03-04T10:13:01;8.59;82.61
68943;DHT22;60852;52.190;4.422;2023-03-04T10:15:35;8.83;81.87
68943;DHT22;60852;52.190;4.422;2023-03-04T10:21:01;8.94;80.46
68943;DHT22;60852;52.190;4.422;2023-03-04T10:23:32;8.94;80.38
68943;DHT22;60852;52.190;4.422;2023-03-04T10:26:01;8.99;80.23
68943;DHT22;60852;52.190;4.422;2023-03-04T10:28:34;9.10;79.74
68943;DHT22;60852;52.190;4.422;2023-03-04T10:33:54;9.14;78.41
68943;DHT22;60852;52.190;4.422;2023-03-04T10:36:37;9.32;78.26
68943;DHT22;60852;52.190;4.422;2023-03-04T10:39:25;9.28;77.79
68943;DHT22;60852;52.190;4.422;2023-03-04T10:42:01;9.20;79.66
68943;DHT22;60852;52.190;4.422;2023-03-04T10:44:28;9.11;81.53
68943;DHT22;60852;52.190;4.422;2023-03-04T10:46:56;9.00;81.40
68943;DHT22;60852;52.190;4.422;2023-03-04T10:49:22;9.01;81.99
68943;DHT22;60852;52.190;4.422;2023-03-04T10:54:40;9.23;82.21
68943;DHT22;60852;52.190;4.422;2023-03-04T10:57:19;9.41;81.12
68943;DHT22;60852;52.190;4.422;2023-03-04T10:59:55;9.61;80.66
68943;DHT22;60852;52.190;4.422;2023-03-04T11:05:05;10.00;78.64
68943;DHT22;60852;52.190;4.422;2023-03-04T11:07:38;9.75;76.86
68943;DHT22;60852;52.190;4.422;2023-03-04T11:10:28;9.61;78.06
68943;DHT22;60852;52.190;4.422;2023-03-04T11:12:55;9.58;77.91
68943;DHT22;60852;52.190;4.422;2023-03-04T11:15:26;9.81;78.00
68943;DHT22;60852;52.190;4.422;2023-03-04T11:18:02;10.03;76.27
68943;DHT22;60852;52.190;4.422;2023-03-04T11:20:35;10.12;75.51
68943;DHT22;60852;52.190;4.422;2023-03-04T11:23:05;10.12;76.22
68943;DHT22;60852;52.190;4.422;2023-03-04T11:25:40;10.03;76.30
68943;DHT22;60852;52.190;4.422;2023-03-04T11:28:22;9.96;75.77
68943;DHT22;60852;52.190;4.422;2023-03-04T11:30:54;9.31;78.45
68943;DHT22;60852;52.190;4.422;2023-03-04T11:36:28;8.66;83.59
68943;DHT22;60852;52.190;4.422;2023-03-04T11:38:56;8.67;83.88
68943;DHT22;60852;52.190;4.422;2023-03-04T11:43:54;8.77;84.74
68943;DHT22;60852;52.190;4.422;2023-03-04T12:00:15;8.39;84.39
68943;DHT22;60852;52.190;4.422;2023-03-04T12:02:54;8.31;84.73
68943;DHT22;60852;52.190;4.422;2023-03-04T12:05:42;8.32;85.82
68943;DHT22;60852;52.190;4.422;2023-03-04T12:16:45;8.18;84.56
68943;DHT22;60852;52.190;4.422;2023-03-04T12:19:38;8.25;83.88
68943;DHT22;60852;52.190;4.422;2023-03-04T12:22:26;8.32;83.05
68943;DHT22;60852;52.190;4.422;2023-03-04T12:28:10;8.81;83.09
68943;DHT22;60852;52.190;4.422;2023-03-04T12:31:07;8.74;82.05
68943;DHT22;60852;52.190;4.422;2023-03-04T12:33:59;8.59;82.71
68943;DHT22;60852;52.190;4.422;2023-03-04T12:39:33;8.94;81.16
68943;DHT22;60852;52.190;4.422;2023-03-04T12:45:31;8.91;79.85
68943;DHT22;60852;52.190;4.422;2023-03-04T12:51:03;8.79;78.65
68943;DHT22;60852;52.190;4.422;2023-03-04T12:56:24;9.08;77.47
68943;DHT22;60852;52.190;4.422;2023-03-04T12:58:52;9.13;74.71
68943;DHT22;60852;52.190;4.422;2023-03-04T13:01:41;9.15;73.80
68943;DHT22;60852;52.190;4.422;2023-03-04T13:04:44;9.20;73.49
68943;DHT22;60852;52.190;4.422;2023-03-04T13:09:57;8.99;77.65
68943;DHT22;60852;52.190;4.422;2023-03-04T13:12:25;8.87;79.73
68943;DHT22;60852;52.190;4.422;2023-03-04T13:25:41;8.49;81.81
68943;DHT22;60852;52.190;4.422;2023-03-04T13:38:32;8.49;78.72
68943;DHT22;60852;52.190;4.422;2023-03-04T13:43:27;8.93;78.37
68943;DHT22;60852;52.190;4.422;2023-03-04T13:53:54;9.59;76.32
68943;DHT22;60852;52.190;4.422;2023-03-04T13:59:01;9.85;75.22
68943;DHT22;60852;52.190;4.422;2023-03-04T14:01:32;9.87;74.94
68943;DHT22;60852;52.190;4.422;2023-03-04T14:03:58;9.93;74.18
68943;DHT22;60852;52.190;4.422;2023-03-04T14:06:27;9.61;73.87
68943;DHT22;60852;52.190;4.422;2023-03-04T14:08:54;9.34;73.77
68943;DHT22;60852;52.190;4.422;2023-03-04T14:11:37;9.34;73.53
68943;DHT22;60852;52.190;4.422;2023-03-04T14:14:11;9.25;70.13
68943;DHT22;60852;52.190;4.422;2023-03-04T14:16:47;9.04;70.00
68943;DHT22;60852;52.190;4.422;2023-03-04T14:21:51;8.93;70.39
68943;DHT22;60852;52.190;4.422;2023-03-04T14:24:19;8.85;70.29
68943;DHT22;60852;52.190;4.422;2023-03-04T14:26:45;8.77;70.80
68943;DHT22;60852;52.190;4.422;2023-03-04T14:29:25;8.73;71.00
68943;DHT22;60852;52.190;4.422;2023-03-04T14:31:52;8.70;72.21
68943;DHT22;60852;52.190;4.422;2023-03-04T14:34:28;8.84;72.37
68943;DHT22;60852;52.190;4.422;2023-03-04T14:36:54;8.84;72.50
68943;DHT22;60852;52.190;4.422;2023-03-04T14:39:25;8.87;72.12
68943;DHT22;60852;52.190;4.422;2023-03-04T14:41:53;8.80;71.64
68943;DHT22;60852;52.190;4.422;2023-03-04T14:44:30;8.67;71.39
68943;DHT22;60852;52.190;4.422;2023-03-04T14:47:26;8.72;71.68
68943;DHT22;60852;52.190;4.422;2023-03-04T14:49:53;8.73;71.96
68943;DHT22;60852;52.190;4.422;2023-03-04T14:52:35;8.72;71.57
68943;DHT22;60852;52.190;4.422;2023-03-04T14:57:40;8.57;72.28
68943;DHT22;60852;52.190;4.422;2023-03-04T15:02:49;8.43;72.38
68943;DHT22;60852;52.190;4.422;2023-03-04T15:07:50;8.56;72.13
68943;DHT22;60852;52.190;4.422;2023-03-04T15:10:21;8.45;72.31
68943;DHT22;60852;52.190;4.422;2023-03-04T15:12:56;8.29;72.63
68943;DHT22;60852;52.190;4.422;2023-03-04T15:15:43;8.32;72.98
68943;DHT22;60852;52.190;4.422;2023-03-04T15:18:23;8.39;73.94
68943;DHT22;60852;52.190;4.422;2023-03-04T15:20:55;8.52;74.59
68943;DHT22;60852;52.190;4.422;2023-03-04T15:23:21;8.52;74.54
68943;DHT22;60852;52.190;4.422;2023-03-04T15:25:51;8.35;75.11
68943;DHT22;60852;52.190;4.422;2023-03-04T15:28:18;8.34;75.16
68943;DHT22;60852;52.190;4.422;2023-03-04T15:30:44;8.35;74.66
68943;DHT22;60852;52.190;4.422;2023-03-04T15:33:10;8.20;73.69
68943;DHT22;60852;52.190;4.422;2023-03-04T15:35:37;8.16;72.79
68943;DHT22;60852;52.190;4.422;2023-03-04T15:38:07;8.11;73.46
68943;DHT22;60852;52.190;4.422;2023-03-04T15:40:39;8.18;73.58
68943;DHT22;60852;52.190;4.422;2023-03-04T15:43:13;8.18;73.68
68943;DHT22;60852;52.190;4.422;2023-03-04T15:45:39;8.22;73.64
68943;DHT22;60852;52.190;4.422;2023-03-04T15:48:08;8.20;73.89
68943;DHT22;60852;52.190;4.422;2023-03-04T15:50:37;8.26;74.22
68943;DHT22;60852;52.190;4.422;2023-03-04T15:53:08;8.36;73.78
68943;DHT22;60852;52.190;4.422;2023-03-04T15:55:34;8.41;73.28
68943;DHT22;60852;52.190;4.422;2023-03-04T15:58:02;8.42;73.09
68943;DHT22;60852;52.190;4.422;2023-03-04T16:00:28;8.36;73.63
68943;DHT22;60852;52.190;4.422;2023-03-04T16:02:55;8.29;74.34
68943;DHT22;60852;52.190;4.422;2023-03-04T16:05:21;8.11;75.05
68943;DHT22;60852;52.190;4.422;2023-03-04T16:07:49;8.05;74.49
68943;DHT22;60852;52.190;4.422;2023-03-04T16:10:26;7.83;74.88
68943;DHT22;60852;52.190;4.422;2023-03-04T16:12:53;7.69;75.57
68943;DHT22;60852;52.190;4.422;2023-03-04T16:15:25;7.69;75.51
68943;DHT22;60852;52.190;4.422;2023-03-04T16:17:51;7.83;74.22
68943;DHT22;60852;52.190;4.422;2023-03-04T16:20:20;7.66;73.84
68943;DHT22;60852;52.190;4.422;2023-03-04T16:22:49;7.67;74.08
68943;DHT22;60852;52.190;4.422;2023-03-04T16:25:17;7.83;74.05
68943;DHT22;60852;52.190;4.422;2023-03-04T16:27:43;7.93;73.62
68943;DHT22;60852;52.190;4.422;2023-03-04T16:30:21;7.91;73.35
68943;DHT22;60852;52.190;4.422;2023-03-04T16:32:47;7.90;73.72
68943;DHT22;60852;52.190;4.422;2023-03-04T16:35:14;7.99;73.68
68943;DHT22;60852;52.190;4.422;2023-03-04T16:37:41;7.97;74.00
68943;DHT22;60852;52.190;4.422;2023-03-04T16:40:11;8.04;74.06
68943;DHT22;60852;52.190;4.422;2023-03-04T16:42:38;8.04;73.88
68943;DHT22;60852;52.190;4.422;2023-03-04T16:45:06;7.98;74.18
68943;DHT22;60852;52.190;4.422;2023-03-04T16:47:31;7.93;74.38
68943;DHT22;60852;52.190;4.422;2023-03-04T16:49:58;7.95;74.39
68943;DHT22;60852;52.190;4.422;2023-03-04T16:52:31;7.91;74.30
68943;DHT22;60852;52.190;4.422;2023-03-04T16:54:57;7.80;75.08
68943;DHT22;60852;52.190;4.422;2023-03-04T16:57:23;7.77;76.21
68943;DHT22;60852;52.190;4.422;2023-03-04T16:59:51;7.75;77.25
68943;DHT22;60852;52.190;4.422;2023-03-04T17:02:21;7.74;77.66
68943;DHT22;60852;52.190;4.422;2023-03-04T17:04:51;7.78;78.07
68943;DHT22;60852;52.190;4.422;2023-03-04T17:07:17;7.85;78.11
68943;DHT22;60852;52.190;4.422;2023-03-04T17:09:42;7.84;78.28
68943;DHT22;60852;52.190;4.422;2023-03-04T17:12:11;7.85;78.63
68943;DHT22;60852;52.190;4.422;2023-03-04T17:14:38;7.87;79.50
68943;DHT22;60852;52.190;4.422;2023-03-04T17:17:05;7.94;79.23
68943;DHT22;60852;52.190;4.422;2023-03-04T17:19:31;7.98;79.47
68943;DHT22;60852;52.190;4.422;2023-03-04T17:21:58;8.06;79.46
68943;DHT22;60852;52.190;4.422;2023-03-04T17:24:24;8.16;78.45
68943;DHT22;60852;52.190;4.422;2023-03-04T17:26:50;7.93;77.76
68943;DHT22;60852;52.190;4.422;2023-03-04T17:29:16;7.66;78.75
68943;DHT22;60852;52.190;4.422;2023-03-04T17:31:42;7.56;79.09
68943;DHT22;60852;52.190;4.422;2023-03-04T17:34:08;7.46;78.23
68943;DHT22;60852;52.190;4.422;2023-03-04T17:36:34;7.49;78.75
68943;DHT22;60852;52.190;4.422;2023-03-04T17:39:00;7.50;76.73
68943;DHT22;60852;52.190;4.422;2023-03-04T17:41:25;7.56;76.88
68943;DHT22;60852;52.190;4.422;2023-03-04T17:43:52;7.56;75.31
68943;DHT22;60852;52.190;4.422;2023-03-04T17:46:26;7.56;73.52